Calama, Chile
Current Conditions -  °F | °C
As of 7:00 PM on Thursday 20 Nov 2014 (Local Time) from SCCF Reporting Station
Clear Clear  
Wind Chill: 66°   Ceiling: Unl
Heat Index: 66°   Visibility: 6mi
Dew Point: 10°   Wind: 18mph
Humidity: 11%   Direction: 270°W
Pressure: 30.24"   Gusts: NA
Location:  22.45°S, 68.92°W
Report Text: SCCF 202300Z 27016KT CAVOK 19/M12 Q1024
Loading
Personal Weather Stations






























Interactive Weather Map New forecast layout! Learn more

10-Day Weather Forecast

Advertisements
Track Severe Weather on mobile